Time;durP1;ratioP1;P1;durP2;ratioP2;P2;SDS_P1;SDS_P2;PMS_P1;PMS_P2;Temp;Humidity;BMP_temperature;BMP_pressure;BME280_temperature;BME280_humidity;BME280_pressure;Samples;Min_cycle;Max_cycle;Signal;HPM_P1;HPM_P2
2023/03/24 00:02:52;;;;;;;8.27;3.53;;;;;;;12.60;77.83;98267.44;4855199;29;20053;-79
2023/03/24 00:06:00;;;;;;;6.90;3.20;;;;;;;12.62;78.15;98269.94;4865454;29;20086;-78
2023/03/24 00:08:49;;;;;;;5.95;3.00;;;;;;;12.64;78.42;98268.81;4858351;29;20057;-78
2023/03/24 00:11:34;;;;;;;11.57;3.38;;;;;;;12.60;78.00;98261.34;4858469;29;20065;-78
2023/03/24 00:14:30;;;;;;;5.80;2.88;;;;;;;12.62;78.72;98254.09;4914234;29;20115;-79
2023/03/24 00:17:28;;;;;;;8.60;3.30;;;;;;;12.64;78.89;98255.63;4908718;29;20499;-79
2023/03/24 00:20:25;;;;;;;8.38;3.25;;;;;;;12.64;78.84;98249.53;4840196;29;20085;-79
2023/03/24 00:23:35;;;;;;;8.20;2.92;;;;;;;12.67;78.94;98248.41;4785088;29;20142;-79
2023/03/24 00:26:36;;;;;;;4.35;2.75;;;;;;;12.70;79.06;98240.19;4847975;29;20060;-79
2023/03/24 00:29:12;;;;;;;7.72;3.20;;;;;;;12.69;79.50;98233.25;4909785;29;20474;-78
2023/03/24 00:31:40;;;;;;;7.43;3.38;;;;;;;12.67;79.67;98225.47;4956565;28;20054;-78
2023/03/24 00:37:52;;;;;;;8.63;3.63;;;;;;;12.65;79.42;98219.50;4972018;28;20053;-78
2023/03/24 00:40:44;;;;;;;6.20;3.78;;;;;;;12.64;79.56;98213.38;4972134;28;20174;-78
2023/03/24 00:43:42;;;;;;;7.13;3.65;;;;;;;12.66;79.73;98207.97;4931195;28;20463;-78
2023/03/24 00:53:33;;;;;;;7.15;3.40;;;;;;;12.68;80.19;98194.63;4875775;29;20057;-78
2023/03/24 00:56:24;;;;;;;5.38;3.63;;;;;;;12.71;80.47;98179.34;4854106;29;20062;-79
2023/03/24 00:59:20;;;;;;;5.45;2.92;;;;;;;12.70;80.53;98193.53;4932824;29;20093;-77
2023/03/24 01:01:49;;;;;;;9.43;3.17;;;;;;;12.73;81.00;98181.84;4993314;28;20430;-78
2023/03/24 01:08:20;;;;;;;8.45;3.45;;;;;;;12.74;80.98;98178.22;4961560;28;20090;-78
2023/03/24 01:10:52;;;;;;;6.15;3.63;;;;;;;12.77;81.16;98181.44;4975729;28;20483;-77
2023/03/24 01:13:37;;;;;;;5.72;3.20;;;;;;;12.80;81.24;98182.13;4975555;28;20066;-78
2023/03/24 01:16:48;;;;;;;8.50;3.83;;;;;;;12.77;80.93;98170.03;4992163;28;20565;-78
2023/03/24 01:19:50;;;;;;;5.20;3.20;;;;;;;12.78;80.77;98158.50;4992927;28;20055;-78
2023/03/24 01:22:19;;;;;;;4.45;3.03;;;;;;;12.84;81.59;98162.38;4959862;28;20145;-77
2023/03/24 01:28:23;;;;;;;5.65;3.35;;;;;;;12.86;81.30;98155.16;4972240;28;20189;-77
2023/03/24 01:30:55;;;;;;;4.70;3.55;;;;;;;12.87;81.61;98149.72;4992366;28;20409;-77
2023/03/24 01:33:22;;;;;;;5.43;3.50;;;;;;;12.88;81.75;98146.13;4992093;28;20077;-77
2023/03/24 01:35:49;;;;;;;7.63;3.03;;;;;;;12.89;81.91;98137.22;4992363;28;20092;-77
2023/03/24 01:38:34;;;;;;;4.40;3.28;;;;;;;12.88;81.70;98138.19;4974432;28;20082;-77
2023/03/24 01:41:18;;;;;;;6.57;3.50;;;;;;;12.94;82.17;98135.94;4990343;28;20054;-76
2023/03/24 01:43:58;;;;;;;4.72;3.03;;;;;;;12.94;81.97;98126.25;4992575;28;20054;-76
2023/03/24 01:46:57;;;;;;;4.93;3.38;;;;;;;12.94;82.11;98114.81;4991800;28;20072;-76
2023/03/24 01:49:39;;;;;;;5.70;3.67;;;;;;;12.94;82.00;98120.94;4931579;29;20058;-75
2023/03/24 01:52:15;;;;;;;6.20;3.17;;;;;;;12.97;81.91;98111.91;4990499;28;20101;-75
2023/03/24 01:55:06;;;;;;;5.47;3.13;;;;;;;12.95;81.59;98103.28;4992247;28;20058;-76
2023/03/24 01:57:41;;;;;;;4.40;3.03;;;;;;;12.99;81.80;98097.56;4961608;28;20061;-75
2023/03/24 02:00:14;;;;;;;5.00;3.22;;;;;;;13.02;81.86;98091.97;4974894;28;20057;-75
2023/03/24 02:02:53;;;;;;;6.55;3.42;;;;;;;13.02;81.90;98096.47;4975070;28;20468;-75
2023/03/24 02:06:11;;;;;;;3.65;2.92;;;;;;;13.01;81.75;98089.50;4974743;28;20055;-76
2023/03/24 02:09:21;;;;;;;7.38;3.22;;;;;;;13.05;81.73;98079.47;4913316;28;20146;-75
2023/03/24 02:12:19;;;;;;;4.43;2.90;;;;;;;13.08;81.63;98076.56;4970039;28;20050;-75
2023/03/24 02:14:52;;;;;;;4.38;3.38;;;;;;;13.05;81.44;98085.59;4992034;28;20058;-75
2023/03/24 02:20:45;;;;;;;3.90;3.05;;;;;;;13.09;81.29;98071.09;4991905;28;19922;-75
2023/03/24 02:23:49;;;;;;;4.10;3.08;;;;;;;13.07;81.32;98051.09;4992019;28;20165;-76
2023/03/24 02:27:13;;;;;;;5.63;3.28;;;;;;;13.03;81.39;98053.22;4978003;28;20101;-75
2023/03/24 02:30:05;;;;;;;3.58;3.13;;;;;;;13.05;81.54;98043.34;4996057;28;20431;-76
2023/03/24 02:33:04;;;;;;;7.40;3.30;;;;;;;13.05;81.76;98053.91;4995800;28;20422;-76
2023/03/24 02:36:00;;;;;;;3.30;2.70;;;;;;;13.06;81.92;98037.06;4916287;29;20142;-75
2023/03/24 02:39:43;;;;;;;8.43;3.15;;;;;;;13.06;81.89;98037.06;4860500;29;20053;-75
2023/03/24 02:42:25;;;;;;;4.97;3.05;;;;;;;13.08;81.70;98036.94;4935300;29;20143;-75
2023/03/24 02:45:38;;;;;;;4.82;3.10;;;;;;;13.08;82.04;98039.56;4934930;29;20063;-75
2023/03/24 02:48:32;;;;;;;5.80;2.90;;;;;;;13.09;82.00;98018.28;4935158;29;20062;-76
2023/03/24 02:51:19;;;;;;;6.00;3.30;;;;;;;13.09;81.93;98012.19;4985752;28;20144;-76
2023/03/24 02:55:24;;;;;;;5.53;3.28;;;;;;;13.13;82.20;98014.34;4989553;28;20058;-74
2023/03/24 02:58:50;;;;;;;4.65;2.67;;;;;;;13.13;81.83;98002.97;4916630;29;20541;-75
2023/03/24 03:01:42;;;;;;;7.13;3.10;;;;;;;13.16;81.95;98005.34;4913420;29;20091;-75
2023/03/24 03:04:58;;;;;;;6.22;3.15;;;;;;;13.15;81.77;98006.28;4915306;29;20518;-75
2023/03/24 03:07:40;;;;;;;5.85;3.20;;;;;;;13.20;82.59;97996.09;5024083;23;20137;-75
2023/03/24 03:10:12;;;;;;;4.80;3.40;;;;;;;13.19;82.40;97989.16;4974790;28;20105;-75
2023/03/24 03:12:40;;;;;;;7.32;3.20;;;;;;;13.23;82.47;97987.09;4975255;28;20086;-76
2023/03/24 03:15:31;;;;;;;5.38;3.75;;;;;;;13.19;82.20;97975.97;4973538;28;20058;-76
2023/03/24 03:18:08;;;;;;;5.45;3.45;;;;;;;13.22;82.49;97972.19;4974860;28;20065;-76
2023/03/24 03:20:49;;;;;;;5.30;2.90;;;;;;;13.22;82.40;97970.38;4974536;28;20411;-76
2023/03/24 03:23:22;;;;;;;9.18;3.13;;;;;;;13.24;82.52;97967.59;4974986;28;20087;-75
2023/03/24 03:25:55;;;;;;;6.93;3.22;;;;;;;13.24;82.55;97978.16;4974613;28;20054;-75
2023/03/24 03:28:24;;;;;;;;;;;;;;;13.22;81.76;97964.25;4975060;28;20059;-76
2023/03/24 03:30:58;;;;;;;5.30;2.92;;;;;;;13.26;82.08;97962.97;4973048;28;19958;-75
2023/03/24 03:33:34;;;;;;;4.93;3.75;;;;;;;13.23;82.18;97955.38;4974955;28;20050;-76
2023/03/24 03:36:23;;;;;;;6.72;4.03;;;;;;;13.19;82.37;97944.25;4974468;28;20058;-75
2023/03/24 03:39:02;;;;;;;5.68;3.55;;;;;;;13.19;82.57;97938.16;4973471;28;20065;-74
2023/03/24 03:41:29;;;;;;;6.05;3.95;;;;;;;13.20;83.04;97955.66;4970293;28;20058;-75
2023/03/24 03:43:56;;;;;;;6.28;3.55;;;;;;;13.21;83.07;97946.75;4974535;28;20050;-75
2023/03/24 03:46:23;;;;;;;4.93;3.92;;;;;;;13.20;83.13;97948.56;4974576;28;20125;-75
2023/03/24 03:48:50;;;;;;;4.25;3.65;;;;;;;13.21;83.18;97941.47;4974088;28;20071;-75
2023/03/24 03:51:17;;;;;;;5.25;4.07;;;;;;;13.22;83.33;97943.13;4974307;28;20156;-76
2023/03/24 03:53:57;;;;;;;6.25;4.00;;;;;;;13.19;82.94;97938.16;4974080;28;20078;-76
2023/03/24 03:56:27;;;;;;;5.13;4.00;;;;;;;13.22;83.26;97933.41;4971724;28;20055;-75
2023/03/24 03:58:54;;;;;;;5.70;4.13;;;;;;;13.23;83.43;97942.97;4973862;28;20054;-76
2023/03/24 04:01:26;;;;;;;7.22;4.47;;;;;;;13.21;83.00;97941.47;4974567;28;20384;-76
2023/03/24 04:04:19;;;;;;;4.88;3.92;;;;;;;13.19;82.90;97917.03;4972856;28;20423;-76
2023/03/24 04:07:09;;;;;;;7.50;4.22;;;;;;;13.20;83.11;97922.13;4972317;28;20061;-75
2023/03/24 04:09:51;;;;;;;7.38;4.35;;;;;;;13.20;83.14;97930.06;4973979;28;20054;-76
2023/03/24 04:12:29;;;;;;;5.57;4.50;;;;;;;13.22;83.30;97943.13;4973877;28;20059;-76
2023/03/24 04:15:16;;;;;;;6.72;4.13;;;;;;;13.23;83.37;97947.44;4972610;28;20073;-76
2023/03/24 04:18:10;;;;;;;5.82;4.72;;;;;;;13.23;83.25;97936.88;4973877;28;20146;-75
2023/03/24 04:20:46;;;;;;;7.53;4.15;;;;;;;13.25;83.35;97941.03;4973741;28;20066;-76
2023/03/24 04:23:29;;;;;;;5.80;4.30;;;;;;;13.27;83.51;97935.59;4972781;28;20051;-75
2023/03/24 04:26:14;;;;;;;5.25;3.80;;;;;;;13.28;83.60;97932.78;4973564;28;20054;-75
2023/03/24 04:29:12;;;;;;;6.70;4.75;;;;;;;13.26;83.46;97916.25;4973690;28;20057;-75
2023/03/24 04:31:48;;;;;;;4.68;4.15;;;;;;;13.28;83.49;97930.16;4973825;28;20063;-75
2023/03/24 04:34:25;;;;;;;5.13;4.63;;;;;;;13.33;83.97;97939.44;4973678;28;20050;-76
2023/03/24 04:37:01;;;;;;;5.75;4.97;;;;;;;13.34;83.79;97951.69;4971951;28;20113;-75
2023/03/24 04:39:31;;;;;;;7.13;5.65;;;;;;;13.37;83.94;97941.63;4973890;28;20611;-76
2023/03/24 04:42:03;;;;;;;6.18;5.00;;;;;;;13.38;83.66;97948.56;4973648;28;20094;-74
2023/03/24 04:44:31;;;;;;;7.90;5.45;;;;;;;13.40;83.61;97951.91;4973571;28;20054;-76
2023/03/24 04:47:01;;;;;;;6.50;5.10;;;;;;;13.42;83.62;97947.28;4973062;28;20057;-75
2023/03/24 04:49:28;;;;;;;9.55;5.10;;;;;;;13.46;83.69;97954.94;4972850;28;20142;-75
2023/03/24 04:51:55;;;;;;;6.53;5.15;;;;;;;13.46;83.57;97955.75;4971715;28;20046;-75
2023/03/24 04:54:22;;;;;;;7.22;5.70;;;;;;;13.47;83.83;97962.72;4973098;28;20054;-75
2023/03/24 04:56:51;;;;;;;6.15;5.55;;;;;;;13.48;83.83;97979.41;4972770;28;20051;-77
2023/03/24 04:59:18;;;;;;;6.05;5.45;;;;;;;13.51;83.69;97963.25;4973124;28;20544;-76
2023/03/24 05:01:51;;;;;;;6.72;6.07;;;;;;;13.52;83.54;97959.63;4972862;28;20051;-76
2023/03/24 05:04:23;;;;;;;6.75;5.40;;;;;;;13.53;83.17;97971.88;4973059;28;20089;-75
2023/03/24 05:06:50;;;;;;;4.78;4.38;;;;;;;13.55;82.88;97980.47;4972511;28;20144;-75
2023/03/24 05:09:20;;;;;;;4.78;4.28;;;;;;;13.49;82.21;97967.88;4973137;28;20085;-76
2023/03/24 05:11:47;;;;;;;3.50;3.20;;;;;;;13.48;81.87;97977.63;4967364;28;20570;-76
2023/03/24 05:14:14;;;;;;;2.80;2.60;;;;;;;13.45;81.30;97972.59;4972394;28;20046;-75
2023/03/24 05:16:41;;;;;;;2.95;2.63;;;;;;;13.43;81.01;97985.13;4972159;28;20055;-75
2023/03/24 05:19:09;;;;;;;4.43;3.08;;;;;;;13.37;81.12;98002.41;4972293;28;20114;-76
2023/03/24 05:21:36;;;;;;;3.75;2.50;;;;;;;13.35;81.39;98006.19;4972902;28;20551;-75
2023/03/24 05:24:02;;;;;;;3.47;2.72;;;;;;;13.33;81.61;98018.72;4972571;28;20447;-76
2023/03/24 05:26:30;;;;;;;3.15;2.50;;;;;;;13.30;81.68;98035.69;4972614;28;20143;-75
2023/03/24 05:28:59;;;;;;;3.17;2.17;;;;;;;13.27;81.74;98039.47;4972750;28;20111;-75
2023/03/24 05:31:26;;;;;;;3.53;2.28;;;;;;;13.25;81.30;98033.50;4972683;28;20105;-75
2023/03/24 05:33:52;;;;;;;2.92;1.90;;;;;;;13.25;81.65;98032.66;4972154;28;20142;-75
2023/03/24 05:36:19;;;;;;;4.18;2.25;;;;;;;13.23;81.68;98050.50;4972536;28;20158;-75
2023/03/24 05:38:46;;;;;;;2.85;1.60;;;;;;;13.20;81.20;98053.41;4972275;28;20055;-75
2023/03/24 05:41:12;;;;;;;3.00;1.77;;;;;;;13.18;81.28;98069.41;4972480;28;20054;-75
2023/03/24 05:43:39;;;;;;;2.30;1.85;;;;;;;13.15;81.07;98081.09;4972361;28;20075;-76
2023/03/24 05:46:06;;;;;;;2.30;2.03;;;;;;;13.13;80.72;98083.03;4972029;28;20054;-75
2023/03/24 05:48:33;;;;;;;2.97;1.85;;;;;;;13.11;80.82;98092.94;4972347;28;20100;-75
2023/03/24 05:51:00;;;;;;;2.88;1.60;;;;;;;13.09;80.97;98110.72;4972068;28;20055;-76
2023/03/24 05:53:26;;;;;;;2.67;1.85;;;;;;;13.07;80.36;98111.84;4972352;28;20057;-75
2023/03/24 05:55:53;;;;;;;2.42;1.52;;;;;;;13.04;80.23;98115.63;4971893;28;20086;-75
2023/03/24 05:58:20;;;;;;;2.08;1.58;;;;;;;13.01;79.97;98122.03;4971898;28;20136;-75
2023/03/24 06:00:47;;;;;;;2.88;1.27;;;;;;;12.97;79.34;98125.13;4971426;28;20408;-75
2023/03/24 06:03:15;;;;;;;2.47;1.58;;;;;;;12.93;79.08;98135.09;4972387;28;20172;-75
2023/03/24 06:05:44;;;;;;;3.75;1.77;;;;;;;12.88;79.00;98130.28;4971987;28;20055;-75
2023/03/24 06:08:12;;;;;;;3.47;1.77;;;;;;;12.84;78.90;98143.88;4971621;28;20062;-75
2023/03/24 06:10:39;;;;;;;3.72;1.95;;;;;;;12.80;79.28;98138.06;4971765;28;20074;-75
2023/03/24 06:13:07;;;;;;;8.20;1.67;;;;;;;12.75;79.16;98148.22;4971955;28;20063;-76
2023/03/24 06:15:35;;;;;;;3.53;1.70;;;;;;;12.71;79.29;98155.56;4977927;28;20050;-75
2023/03/24 06:18:04;;;;;;;4.10;1.67;;;;;;;12.68;79.00;98161.16;4979183;28;20047;-75
2023/03/24 06:20:31;;;;;;;6.97;1.90;;;;;;;12.64;78.48;98165.06;4979455;28;20426;-77
2023/03/24 06:22:58;;;;;;;3.45;1.58;;;;;;;12.60;78.52;98176.88;4981970;28;20578;-75
2023/03/24 06:25:27;;;;;;;4.97;1.83;;;;;;;12.54;77.99;98180.91;4974152;28;20066;-76
2023/03/24 06:27:54;;;;;;;4.60;1.40;;;;;;;12.50;77.98;98192.69;4966746;28;20058;-75
2023/03/24 06:30:21;;;;;;;8.95;2.35;;;;;;;12.46;78.49;98199.22;4975228;28;20507;-76
2023/03/24 06:32:47;;;;;;;8.48;2.00;;;;;;;12.41;78.06;98198.81;4980259;28;20058;-75
2023/03/24 06:35:15;;;;;;;8.77;2.03;;;;;;;12.37;78.24;98204.34;4969288;28;20046;-75
2023/03/24 06:37:43;;;;;;;5.85;1.98;;;;;;;12.36;78.21;98210.59;4971546;28;20054;-75
2023/03/24 06:40:13;;;;;;;4.95;1.73;;;;;;;12.34;78.63;98211.72;4971632;28;20058;-75
2023/03/24 06:42:40;;;;;;;7.65;1.90;;;;;;;12.34;78.58;98201.97;4971334;28;20599;-75
2023/03/24 06:45:17;;;;;;;5.07;2.10;;;;;;;12.33;78.97;98212.66;4971408;28;20086;-75
2023/03/24 06:47:55;;;;;;;4.85;1.70;;;;;;;12.35;79.29;98231.84;4971516;28;20051;-76
2023/03/24 06:50:25;;;;;;;8.23;1.63;;;;;;;12.33;78.88;98220.59;4970664;28;20063;-77
2023/03/24 06:52:52;;;;;;;7.20;2.15;;;;;;;12.33;78.89;98221.44;4970266;28;20059;-77
2023/03/24 06:55:21;;;;;;;7.90;2.45;;;;;;;12.32;78.85;98225.03;4970492;28;20047;-76
2023/03/24 06:57:47;;;;;;;6.82;1.92;;;;;;;12.34;78.77;98238.09;4971175;28;20094;-78
2023/03/24 07:00:15;;;;;;;5.28;2.03;;;;;;;12.33;78.53;98229.34;4971456;28;20472;-77
2023/03/24 07:02:41;;;;;;;9.30;2.30;;;;;;;12.31;77.55;98249.78;4971744;28;20467;-77
2023/03/24 07:05:09;;;;;;;6.20;2.10;;;;;;;12.32;77.96;98250.59;4971116;28;20153;-78
2023/03/24 07:07:48;;;;;;;11.45;2.53;;;;;;;12.29;75.14;98249.06;4971370;28;20121;-78
2023/03/24 07:10:18;;;;;;;10.50;2.38;;;;;;;12.31;77.54;98244.50;4971324;28;20551;-77
2023/03/24 07:12:50;;;;;;;8.88;2.00;;;;;;;12.28;75.95;98250.03;4972793;28;20109;-77
2023/03/24 07:15:38;;;;;;;11.40;2.30;;;;;;;12.28;74.98;98255.31;4974796;28;20145;-78
2023/03/24 07:18:06;;;;;;;6.70;2.03;;;;;;;12.36;78.66;98259.91;4967525;28;20074;-78
2023/03/24 07:20:32;;;;;;;9.90;2.40;;;;;;;12.37;78.24;98267.69;4973769;28;20066;-77
2023/03/24 07:22:59;;;;;;;12.45;2.92;;;;;;;12.38;76.26;98277.25;4974414;28;20065;-77
2023/03/24 07:25:27;;;;;;;9.80;2.88;;;;;;;12.41;77.10;98262.13;4974605;28;20058;-77
2023/03/24 07:27:55;;;;;;;11.77;2.95;;;;;;;12.43;77.14;98268.09;4974067;28;20051;-77
2023/03/24 07:30:22;;;;;;;11.32;2.88;;;;;;;12.43;76.95;98265.47;4974157;28;20067;-77
2023/03/24 07:33:05;;;;;;;9.98;2.90;;;;;;;12.45;76.61;98282.81;4974906;28;20101;-77
2023/03/24 07:35:32;;;;;;;9.98;3.25;;;;;;;12.44;76.52;98280.31;4974547;28;20051;-77
2023/03/24 07:38:00;;;;;;;21.75;3.92;;;;;;;12.45;76.67;98272.28;4974727;28;20085;-77
2023/03/24 07:40:29;;;;;;;12.98;3.17;;;;;;;12.45;76.68;98282.00;4973271;28;20066;-77
2023/03/24 07:42:59;;;;;;;13.02;3.53;;;;;;;12.46;75.93;98291.59;4974365;28;20519;-76
2023/03/24 07:45:27;;;;;;;15.40;3.60;;;;;;;12.47;76.79;98294.09;4975085;28;20063;-77
2023/03/24 07:47:56;;;;;;;12.65;3.08;;;;;;;12.47;76.94;98288.81;4974512;28;20117;-77
2023/03/24 07:50:22;;;;;;;11.68;3.55;;;;;;;12.48;77.07;98285.19;4974279;28;20055;-77
2023/03/24 07:52:49;;;;;;;14.80;4.07;;;;;;;12.50;76.69;98293.84;4974445;28;20061;-76
2023/03/24 07:55:16;;;;;;;16.40;4.25;;;;;;;12.53;76.99;98291.88;4974824;28;20061;-76
2023/03/24 07:57:47;;;;;;;15.55;3.95;;;;;;;12.53;75.82;98298.00;4974607;28;20381;-77
2023/03/24 08:00:23;;;;;;;15.90;3.88;;;;;;;12.54;75.85;98294.38;4974118;28;20092;-78
2023/03/24 08:02:59;;;;;;;17.77;4.10;;;;;;;12.53;74.17;98300.66;4974937;28;20101;-77
2023/03/24 08:05:28;;;;;;;10.13;3.42;;;;;;;12.57;76.05;98290.63;4972769;28;20112;-76
2023/03/24 08:07:56;;;;;;;16.17;3.55;;;;;;;12.59;76.72;98299.25;4971928;28;20415;-76
2023/03/24 08:10:26;;;;;;;11.65;3.28;;;;;;;12.61;76.57;98299.94;4973555;28;20141;-76
2023/03/24 08:12:54;;;;;;;7.50;3.28;;;;;;;12.63;76.88;98314.69;4972451;28;20094;-76
2023/03/24 08:15:22;;;;;;;12.48;3.75;;;;;;;12.65;76.48;98322.47;4973490;28;20145;-76
2023/03/24 08:17:49;;;;;;;11.02;3.75;;;;;;;12.68;76.95;98321.34;4973190;28;20137;-76
2023/03/24 08:20:18;;;;;;;15.45;3.78;;;;;;;12.69;76.37;98323.00;4973634;28;20054;-76
2023/03/24 08:22:53;;;;;;;14.93;4.22;;;;;;;12.72;75.91;98322.75;4973825;28;20094;-77
2023/03/24 08:25:22;;;;;;;10.95;2.95;;;;;;;12.72;75.63;98320.97;4973189;28;20099;-76
2023/03/24 08:27:53;;;;;;;12.32;3.55;;;;;;;12.73;74.04;98337.63;4973999;28;20109;-77
2023/03/24 08:30:24;;;;;;;12.50;3.65;;;;;;;12.76;75.56;98334.72;4973608;28;20058;-76
2023/03/24 08:32:53;;;;;;;13.68;3.53;;;;;;;12.77;75.31;98328.44;4974160;28;20054;-76
2023/03/24 08:35:38;;;;;;;14.75;3.47;;;;;;;12.77;74.11;98339.00;4973827;28;20475;-77
2023/03/24 08:38:37;;;;;;;11.02;3.20;;;;;;;12.83;74.21;98333.19;4973883;28;20133;-77
2023/03/24 08:41:18;;;;;;;13.25;3.15;;;;;;;12.90;76.37;98325.56;4965344;28;20065;-76
2023/03/24 08:44:10;;;;;;;12.13;3.30;;;;;;;12.90;73.42;98321.09;4975270;28;20069;-77
2023/03/24 08:46:37;;;;;;;11.38;3.58;;;;;;;12.99;76.18;98323.88;4972856;28;20046;-76
2023/03/24 08:49:05;;;;;;;9.75;3.40;;;;;;;13.04;76.03;98340.13;4973063;28;20063;-76
2023/03/24 08:51:44;;;;;;;11.85;4.45;;;;;;;13.07;72.75;98339.03;4972986;28;20332;-76
2023/03/24 08:54:11;;;;;;;14.00;4.80;;;;;;;13.13;74.53;98341.94;4972347;28;20086;-76
2023/03/24 08:56:39;;;;;;;10.80;4.00;;;;;;;13.16;75.17;98341.69;4971798;28;20138;-76
2023/03/24 08:59:05;;;;;;;8.95;4.30;;;;;;;13.22;75.53;98348.22;4972194;28;20097;-76
2023/03/24 09:01:35;;;;;;;13.27;4.57;;;;;;;13.28;75.02;98357.41;4972258;28;20058;-76
2023/03/24 09:04:03;;;;;;;10.55;3.60;;;;;;;13.32;75.19;98345.56;4972000;28;20058;-76
2023/03/24 09:06:30;;;;;;;10.75;3.95;;;;;;;13.37;75.14;98358.34;4972586;28;20130;-76
2023/03/24 09:08:56;;;;;;;11.23;4.00;;;;;;;13.41;75.33;98355.31;5064134;23;20069;-82
2023/03/24 09:11:23;;;;;;;12.07;3.50;;;;;;;13.46;74.67;98348.75;4971801;28;20520;-82
2023/03/24 09:13:49;;;;;;;10.00;4.30;;;;;;;13.46;72.79;98362.78;4970774;28;20062;-82
2023/03/24 09:16:18;;;;;;;9.02;3.80;;;;;;;13.46;70.70;98368.06;4970380;28;20076;-82
2023/03/24 09:18:45;;;;;;;11.10;3.90;;;;;;;13.46;71.72;98389.22;4971560;28;20059;-82
2023/03/24 09:21:12;;;;;;;12.80;4.07;;;;;;;13.46;72.00;98377.84;4970484;28;20142;-82
2023/03/24 09:23:39;;;;;;;11.95;4.05;;;;;;;13.46;71.29;98376.00;4972104;28;20059;-82
2023/03/24 09:26:06;;;;;;;16.15;4.13;;;;;;;13.47;71.15;98398.00;4971683;28;20468;-82
2023/03/24 09:28:33;;;;;;;14.90;4.88;;;;;;;13.50;71.36;98384.53;4971728;28;20055;-82
2023/03/24 09:31:02;;;;;;;7.47;3.60;;;;;;;13.52;71.35;98372.84;4970625;28;20066;-82
2023/03/24 09:33:29;;;;;;;12.77;4.53;;;;;;;13.55;71.77;98367.28;4972097;28;20090;-82
2023/03/24 09:35:58;;;;;;;11.52;3.75;;;;;;;13.60;72.25;98377.44;4970893;28;20061;-82
2023/03/24 09:38:27;;;;;;;12.98;4.00;;;;;;;13.64;71.26;98370.06;4971233;28;20410;-82
2023/03/24 09:40:59;;;;;;;12.35;4.00;;;;;;;13.70;71.09;98381.84;4971751;28;20059;-82
2023/03/24 09:43:46;;;;;;;10.43;4.55;;;;;;;13.68;65.91;98380.19;4970474;28;20058;-82
2023/03/24 09:46:25;;;;;;;14.20;4.18;;;;;;;13.74;70.36;98381.44;4970511;28;20092;-82
2023/03/24 09:48:56;;;;;;;15.90;4.10;;;;;;;13.78;68.70;98392.56;4971647;28;20121;-82
2023/03/24 09:51:25;;;;;;;13.57;3.90;;;;;;;13.85;71.19;98385.75;4971864;28;20538;-82
2023/03/24 09:54:08;;;;;;;12.13;3.78;;;;;;;13.84;68.15;98391.16;4970746;28;20145;-82
2023/03/24 09:56:38;;;;;;;12.80;3.60;;;;;;;13.90;70.63;98382.66;4969780;28;20069;-82
2023/03/24 09:59:11;;;;;;;10.38;3.95;;;;;;;13.96;71.51;98399.75;4970481;28;20050;-82
2023/03/24 10:01:37;;;;;;;;;;;;;;;13.91;61.48;98392.28;4971026;28;20051;-82
2023/03/24 10:04:10;;;;;;;8.88;3.30;;;;;;;13.92;68.98;98397.44;4971701;28;19933;-81
2023/03/24 10:06:43;;;;;;;9.75;3.40;;;;;;;13.89;68.19;98395.06;4970640;28;20501;-81
2023/03/24 10:09:23;;;;;;;9.30;3.55;;;;;;;13.87;67.02;98399.63;4971478;28;20594;-82
2023/03/24 10:12:20;;;;;;;9.05;4.25;;;;;;;13.82;67.04;98393.94;4971655;28;20051;-82
2023/03/24 10:15:06;;;;;;;12.30;3.80;;;;;;;13.78;66.50;98388.13;4970387;28;20054;-82
2023/03/24 10:17:48;;;;;;;11.05;3.33;;;;;;;13.81;67.40;98403.72;4971083;28;20054;-82
2023/03/24 10:20:37;;;;;;;10.68;3.53;;;;;;;13.86;69.24;98395.34;4971971;28;20059;-82
2023/03/24 10:23:03;;;;;;;9.40;3.95;;;;;;;14.00;72.86;98396.72;4969898;28;20059;-82
2023/03/24 10:25:57;;;;;;;12.07;3.67;;;;;;;14.05;70.50;98394.47;4969501;28;20062;-82
2023/03/24 10:28:37;;;;;;;12.00;3.72;;;;;;;14.15;68.29;98405.03;4969347;28;20055;-82
2023/03/24 10:31:10;;;;;;;9.75;3.10;;;;;;;14.24;69.30;98398.00;4971323;28;20105;-82
2023/03/24 10:33:38;;;;;;;;;;;;;;;14.32;65.65;98405.25;4971772;28;20058;-82
2023/03/24 10:36:19;;;;;;;12.45;3.38;;;;;;;14.49;70.85;98416.88;4971058;28;19926;-81
2023/03/24 10:38:46;;;;;;;13.07;3.80;;;;;;;14.64;74.53;98398.69;4970748;28;20071;-82
2023/03/24 10:41:22;;;;;;;10.20;3.22;;;;;;;14.81;72.17;98399.72;4970919;28;20494;-81
2023/03/24 10:43:55;;;;;;;10.50;2.95;;;;;;;15.01;71.44;98402.25;4969803;28;20062;-82
2023/03/24 10:46:23;;;;;;;;;;;;;;;15.20;63.11;98414.53;4971133;28;20054;-82
2023/03/24 10:49:10;;;;;;;10.48;3.03;;;;;;;15.41;64.87;98428.47;4973453;28;20000;-82
2023/03/24 10:51:37;;;;;;;9.35;2.53;;;;;;;15.52;67.33;98417.66;4967620;28;20593;-82
2023/03/24 10:54:15;;;;;;;9.23;3.15;;;;;;;15.48;61.91;98416.28;4975196;28;20066;-82
2023/03/24 10:57:04;;;;;;;9.27;3.05;;;;;;;15.43;63.50;98427.34;4973943;28;20058;-82
2023/03/24 10:59:55;;;;;;;8.63;2.25;;;;;;;15.31;62.42;98429.41;4974689;28;20058;-81
2023/03/24 11:02:32;;;;;;;8.55;2.78;;;;;;;15.24;64.49;98426.50;4974858;28;20137;-81
2023/03/24 11:05:01;;;;;;;6.80;2.35;;;;;;;15.18;66.17;98432.41;4974427;28;20501;-82
2023/03/24 11:07:32;;;;;;;10.40;2.92;;;;;;;15.05;60.90;98434.59;4972144;28;20050;-82
2023/03/24 11:10:26;;;;;;;8.52;2.97;;;;;;;14.89;60.47;98445.84;4974045;28;20050;-82
2023/03/24 11:12:52;;;;;;;11.38;3.30;;;;;;;14.83;67.44;98434.84;4965762;28;20066;-82
2023/03/24 11:15:29;;;;;;;14.50;3.17;;;;;;;14.73;66.51;98447.28;4973978;28;20106;-82
2023/03/24 11:18:06;;;;;;;11.05;3.25;;;;;;;14.73;69.67;98434.06;4972714;28;20133;-81
2023/03/24 11:20:36;;;;;;;9.98;2.65;;;;;;;14.75;70.25;98453.28;4974449;28;20063;-81
2023/03/24 11:23:17;;;;;;;14.32;3.08;;;;;;;14.81;68.67;98447.41;4974344;28;20059;-81
2023/03/24 11:26:00;;;;;;;9.38;2.83;;;;;;;14.92;66.50;98448.19;4972524;28;20555;-82
2023/03/24 11:28:27;;;;;;;8.60;2.70;;;;;;;15.01;69.29;98462.34;4972556;28;20059;-82
2023/03/24 11:30:55;;;;;;;10.90;3.05;;;;;;;15.07;69.88;98456.47;4974264;28;20058;-82
2023/03/24 11:33:27;;;;;;;12.02;2.75;;;;;;;15.03;61.98;98455.94;4974371;28;20063;-82
2023/03/24 11:36:13;;;;;;;10.73;2.30;;;;;;;15.09;67.24;98463.31;4973692;28;20054;-82
2023/03/24 11:38:40;;;;;;;11.77;2.75;;;;;;;15.15;69.70;98453.94;4973633;28;20505;-81
2023/03/24 11:41:20;;;;;;;11.05;2.88;;;;;;;15.14;62.78;98454.88;4973740;28;20479;-82
2023/03/24 11:43:47;;;;;;;13.70;3.20;;;;;;;15.24;68.95;98450.38;4974234;28;20054;-81
2023/03/24 11:46:19;;;;;;;12.20;3.00;;;;;;;15.28;64.37;98455.38;4973565;28;20066;-81
2023/03/24 11:48:57;;;;;;;10.57;2.90;;;;;;;15.28;62.69;98469.44;4973464;28;20110;-81
2023/03/24 11:51:43;;;;;;;12.15;2.88;;;;;;;15.26;62.28;98462.63;4973577;28;20051;-81
2023/03/24 11:54:13;;;;;;;11.27;3.08;;;;;;;15.31;66.52;98457.72;4973717;28;20059;-81
2023/03/24 11:56:58;;;;;;;8.98;2.80;;;;;;;15.46;65.66;98450.06;4973084;28;20367;-81
2023/03/24 11:59:29;;;;;;;11.80;2.83;;;;;;;15.88;77.21;98448.59;4972724;28;20059;-81
2023/03/24 12:02:12;;;;;;;10.30;2.78;;;;;;;16.41;71.51;98440.69;4973455;28;20420;-81
2023/03/24 12:04:58;;;;;;;9.07;3.08;;;;;;;17.09;71.29;98438.16;4973707;28;20050;-82
2023/03/24 12:08:04;;;;;;;8.07;2.88;;;;;;;17.71;62.06;98450.19;4972784;28;20429;-82
2023/03/24 12:10:40;;;;;;;11.02;2.35;;;;;;;18.16;65.08;98441.03;4973573;28;20133;-81
2023/03/24 12:13:13;;;;;;;8.05;2.45;;;;;;;18.39;60.16;98435.00;4973524;28;20058;-81
2023/03/24 12:16:23;;;;;;;11.82;3.00;;;;;;;18.54;62.78;98435.09;4973003;28;20055;-82
2023/03/24 12:19:20;;;;;;;6.33;2.43;;;;;;;18.46;50.14;98436.78;4971847;28;20093;-81
2023/03/24 12:22:16;;;;;;;9.20;2.60;;;;;;;18.30;55.25;98427.03;4973417;28;20126;-81
2023/03/24 12:25:02;;;;;;;9.95;2.63;;;;;;;18.07;55.39;98438.34;4972995;28;20058;-82
2023/03/24 12:27:47;;;;;;;9.25;2.72;;;;;;;17.83;58.75;98428.56;4971280;28;20502;-81
2023/03/24 12:30:40;;;;;;;4.78;2.28;;;;;;;17.71;58.52;98436.03;4973070;28;20055;-81
2023/03/24 12:33:25;;;;;;;;;;;;;;;17.68;51.52;98437.22;4927188;28;20054;-85
2023/03/24 12:36:17;;;;;;;8.50;2.50;;;;;;;17.63;54.47;98444.88;4972386;28;20008;-81
2023/03/24 12:39:14;;;;;;;7.05;2.75;;;;;;;17.46;53.63;98460.00;4971283;28;20054;-81
2023/03/24 12:41:47;;;;;;;5.43;2.03;;;;;;;17.24;52.10;98450.81;4972859;28;20055;-81